Hauptseite
METAR-TAF:

METAR-TAF

Flughäfen :

Fliegerhorst Neuburg

Neuburg, Deutschland

Breite: 48-43N, Länge: 011-13E, Höhe: 380 m

Beobachtung

Neuester Wetterbericht von vor 48 Minuten, um 07:20 UTC
Wind 6 kt aus West
Temperatur 7°C
Luftfeuchtigkeit 93%
Luftdruck 1028 hPa
Sichtweite 10 km oder mehr
Leicht bewölkt in der Höhe von 1000 ft
Aufgelockert bewölkt in der Höhe von 19000 ft
Durchbrochene Bewölkung in der Höhe von 23000 ft

METAR: ETSN 230720Z 26006KT 9999 FEW010 SCT190 BKN230 07/06 Q1028 BLU+

Zeit: 10:08 (08:08 UTC)

Prognose

Neuester Wetterbericht von vor 53 Minuten, um 07:15 UTC
Gültige Prognose vom 23 um 08 UTC bis 23 um 17 UTC
Wind 12 kt aus West, Böen bis zu 22 kt
Sichtweite 10 km oder mehr
Leicht bewölkt in der Höhe von 3000 ft
Durchbrochene Bewölkung in der Höhe von 22000 ft

TAF: ETSN 230715Z 2308/2317 26012G22KT 9999 NSW FEW030 BKN220 BY ETGL

Wetterbeobachtungen und Prognosen von mehr als 4000 Flughäfen (METAR und TAF Bericht).

Die verfügbaren Stationen werden durch gelbe und rote Markierungen auf der Karte dargestellt.

Führen Sie die Maus auf sie, um den Namen der Station zu sehen.

Darauf klicken, um die Beobachtung von Wetterbeobachtungen und Prognosen zu sehen.

Um die Karte zu ändern : klicken Sie auf den grünen Tasten mit einem schwarzen Kreuz Zum Vergrößern, auf den grünen Button mit einem Gedankenstrich zu verkleinern, oder auf die grünen Pfeile für benachbarte Karten.


METAR-TAF: